sensor_id;sensor_type;location;lat;lon;timestamp;P1;durP1;ratioP1;P2;durP2;ratioP2
18905;SDS011;9585;51.018;4.282;2023-06-26T00:00:31;5.00;;;3.45;;
18905;SDS011;9585;51.018;4.282;2023-06-26T00:02:59;4.15;;;3.40;;
18905;SDS011;9585;51.018;4.282;2023-06-26T00:05:26;3.95;;;3.45;;
18905;SDS011;9585;51.018;4.282;2023-06-26T00:07:55;4.57;;;3.15;;
18905;SDS011;9585;51.018;4.282;2023-06-26T00:10:27;4.50;;;3.25;;
18905;SDS011;9585;51.018;4.282;2023-06-26T00:12:54;3.90;;;3.20;;
18905;SDS011;9585;51.018;4.282;2023-06-26T00:15:22;3.90;;;3.42;;
18905;SDS011;9585;51.018;4.282;2023-06-26T00:17:50;4.28;;;3.10;;
18905;SDS011;9585;51.018;4.282;2023-06-26T00:20:17;4.38;;;3.10;;
18905;SDS011;9585;51.018;4.282;2023-06-26T00:22:45;4.50;;;3.22;;
18905;SDS011;9585;51.018;4.282;2023-06-26T00:25:16;4.00;;;3.15;;
18905;SDS011;9585;51.018;4.282;2023-06-26T00:27:45;4.47;;;3.20;;
18905;SDS011;9585;51.018;4.282;2023-06-26T00:30:20;4.53;;;3.30;;
18905;SDS011;9585;51.018;4.282;2023-06-26T00:32:52;4.45;;;3.05;;
18905;SDS011;9585;51.018;4.282;2023-06-26T00:35:19;3.50;;;2.95;;
18905;SDS011;9585;51.018;4.282;2023-06-26T00:37:47;4.53;;;2.83;;
18905;SDS011;9585;51.018;4.282;2023-06-26T00:40:15;3.30;;;2.70;;
18905;SDS011;9585;51.018;4.282;2023-06-26T00:42:42;4.55;;;3.00;;
18905;SDS011;9585;51.018;4.282;2023-06-26T00:45:11;3.47;;;3.13;;
18905;SDS011;9585;51.018;4.282;2023-06-26T00:47:39;4.07;;;2.85;;
18905;SDS011;9585;51.018;4.282;2023-06-26T00:50:06;5.05;;;3.03;;
18905;SDS011;9585;51.018;4.282;2023-06-26T00:52:34;3.55;;;2.80;;
18905;SDS011;9585;51.018;4.282;2023-06-26T00:55:03;4.05;;;2.83;;
18905;SDS011;9585;51.018;4.282;2023-06-26T00:57:31;3.75;;;3.10;;
18905;SDS011;9585;51.018;4.282;2023-06-26T01:00:00;5.85;;;3.20;;
18905;SDS011;9585;51.018;4.282;2023-06-26T01:02:29;4.95;;;3.00;;
18905;SDS011;9585;51.018;4.282;2023-06-26T01:04:59;4.35;;;3.33;;
18905;SDS011;9585;51.018;4.282;2023-06-26T01:07:28;5.68;;;3.60;;
18905;SDS011;9585;51.018;4.282;2023-06-26T01:10:01;4.10;;;3.20;;
18905;SDS011;9585;51.018;4.282;2023-06-26T01:12:30;4.55;;;3.20;;
18905;SDS011;9585;51.018;4.282;2023-06-26T01:14:59;4.75;;;3.13;;
18905;SDS011;9585;51.018;4.282;2023-06-26T01:17:27;5.15;;;3.10;;
18905;SDS011;9585;51.018;4.282;2023-06-26T01:19:57;5.78;;;3.30;;
18905;SDS011;9585;51.018;4.282;2023-06-26T01:22:27;5.63;;;3.88;;
18905;SDS011;9585;51.018;4.282;2023-06-26T01:25:12;5.85;;;3.17;;
18905;SDS011;9585;51.018;4.282;2023-06-26T01:27:46;4.47;;;3.03;;
18905;SDS011;9585;51.018;4.282;2023-06-26T01:30:17;6.10;;;2.83;;
18905;SDS011;9585;51.018;4.282;2023-06-26T01:32:45;4.15;;;3.40;;
18905;SDS011;9585;51.018;4.282;2023-06-26T01:35:14;4.15;;;3.20;;
18905;SDS011;9585;51.018;4.282;2023-06-26T01:37:43;5.05;;;3.05;;
18905;SDS011;9585;51.018;4.282;2023-06-26T01:40:11;5.72;;;3.45;;
18905;SDS011;9585;51.018;4.282;2023-06-26T01:42:38;4.18;;;3.00;;
18905;SDS011;9585;51.018;4.282;2023-06-26T01:45:10;5.22;;;3.17;;
18905;SDS011;9585;51.018;4.282;2023-06-26T01:47:44;5.07;;;3.17;;
18905;SDS011;9585;51.018;4.282;2023-06-26T01:50:17;4.00;;;3.30;;
18905;SDS011;9585;51.018;4.282;2023-06-26T01:52:51;6.63;;;3.35;;
18905;SDS011;9585;51.018;4.282;2023-06-26T01:55:31;4.95;;;3.13;;
18905;SDS011;9585;51.018;4.282;2023-06-26T01:58:04;4.65;;;2.80;;
18905;SDS011;9585;51.018;4.282;2023-06-26T02:00:34;5.57;;;3.17;;
18905;SDS011;9585;51.018;4.282;2023-06-26T02:03:03;4.55;;;2.88;;
18905;SDS011;9585;51.018;4.282;2023-06-26T02:05:31;5.57;;;3.17;;
18905;SDS011;9585;51.018;4.282;2023-06-26T02:07:59;5.57;;;2.90;;
18905;SDS011;9585;51.018;4.282;2023-06-26T02:10:28;4.53;;;3.28;;
18905;SDS011;9585;51.018;4.282;2023-06-26T02:12:56;5.30;;;3.33;;
18905;SDS011;9585;51.018;4.282;2023-06-26T02:15:23;4.15;;;2.90;;
18905;SDS011;9585;51.018;4.282;2023-06-26T02:17:53;6.32;;;3.28;;
18905;SDS011;9585;51.018;4.282;2023-06-26T02:20:20;4.15;;;2.95;;
18905;SDS011;9585;51.018;4.282;2023-06-26T02:22:47;5.32;;;3.00;;
18905;SDS011;9585;51.018;4.282;2023-06-26T02:25:15;5.50;;;3.20;;
18905;SDS011;9585;51.018;4.282;2023-06-26T02:27:44;5.68;;;3.20;;
18905;SDS011;9585;51.018;4.282;2023-06-26T02:30:11;6.18;;;3.30;;
18905;SDS011;9585;51.018;4.282;2023-06-26T02:32:39;6.57;;;3.17;;
18905;SDS011;9585;51.018;4.282;2023-06-26T02:35:08;5.88;;;3.65;;
18905;SDS011;9585;51.018;4.282;2023-06-26T02:37:36;7.68;;;3.40;;
18905;SDS011;9585;51.018;4.282;2023-06-26T02:40:03;6.38;;;3.20;;
18905;SDS011;9585;51.018;4.282;2023-06-26T02:42:33;6.47;;;3.50;;
18905;SDS011;9585;51.018;4.282;2023-06-26T02:45:01;6.10;;;3.40;;
18905;SDS011;9585;51.018;4.282;2023-06-26T02:47:28;5.70;;;3.20;;
18905;SDS011;9585;51.018;4.282;2023-06-26T02:49:56;6.63;;;3.72;;
18905;SDS011;9585;51.018;4.282;2023-06-26T02:52:25;7.95;;;4.18;;
18905;SDS011;9585;51.018;4.282;2023-06-26T02:54:53;7.85;;;3.95;;
18905;SDS011;9585;51.018;4.282;2023-06-26T02:57:21;7.30;;;3.78;;
18905;SDS011;9585;51.018;4.282;2023-06-26T02:59:49;8.75;;;4.00;;
18905;SDS011;9585;51.018;4.282;2023-06-26T03:02:16;7.35;;;3.90;;
18905;SDS011;9585;51.018;4.282;2023-06-26T03:04:43;9.57;;;3.95;;
18905;SDS011;9585;51.018;4.282;2023-06-26T03:07:11;6.65;;;3.58;;
18905;SDS011;9585;51.018;4.282;2023-06-26T03:09:40;8.75;;;3.80;;
18905;SDS011;9585;51.018;4.282;2023-06-26T03:12:08;8.55;;;4.10;;
18905;SDS011;9585;51.018;4.282;2023-06-26T03:14:36;8.52;;;3.80;;
18905;SDS011;9585;51.018;4.282;2023-06-26T03:17:03;9.35;;;4.00;;
18905;SDS011;9585;51.018;4.282;2023-06-26T03:19:32;13.40;;;4.40;;
18905;SDS011;9585;51.018;4.282;2023-06-26T03:21:59;10.30;;;4.20;;
18905;SDS011;9585;51.018;4.282;2023-06-26T03:24:27;9.82;;;4.30;;
18905;SDS011;9585;51.018;4.282;2023-06-26T03:26:59;8.60;;;4.00;;
18905;SDS011;9585;51.018;4.282;2023-06-26T03:29:26;7.30;;;4.20;;
18905;SDS011;9585;51.018;4.282;2023-06-26T03:31:55;9.45;;;4.25;;
18905;SDS011;9585;51.018;4.282;2023-06-26T03:34:22;7.50;;;4.50;;
18905;SDS011;9585;51.018;4.282;2023-06-26T03:36:50;10.05;;;4.30;;
18905;SDS011;9585;51.018;4.282;2023-06-26T03:39:17;10.00;;;4.65;;
18905;SDS011;9585;51.018;4.282;2023-06-26T03:41:44;11.10;;;4.00;;
18905;SDS011;9585;51.018;4.282;2023-06-26T03:44:13;8.38;;;4.13;;
18905;SDS011;9585;51.018;4.282;2023-06-26T03:46:41;10.45;;;4.25;;
18905;SDS011;9585;51.018;4.282;2023-06-26T03:49:09;9.32;;;4.13;;
18905;SDS011;9585;51.018;4.282;2023-06-26T03:51:36;8.30;;;4.25;;
18905;SDS011;9585;51.018;4.282;2023-06-26T03:54:04;12.13;;;4.97;;
18905;SDS011;9585;51.018;4.282;2023-06-26T03:56:31;7.72;;;3.88;;
18905;SDS011;9585;51.018;4.282;2023-06-26T03:58:58;8.55;;;4.18;;
18905;SDS011;9585;51.018;4.282;2023-06-26T04:01:27;12.75;;;4.35;;
18905;SDS011;9585;51.018;4.282;2023-06-26T04:03:55;8.65;;;4.20;;
18905;SDS011;9585;51.018;4.282;2023-06-26T04:06:22;14.55;;;4.90;;
18905;SDS011;9585;51.018;4.282;2023-06-26T04:08:50;10.88;;;4.45;;
18905;SDS011;9585;51.018;4.282;2023-06-26T04:11:17;9.20;;;3.95;;
18905;SDS011;9585;51.018;4.282;2023-06-26T04:13:45;8.77;;;3.88;;
18905;SDS011;9585;51.018;4.282;2023-06-26T04:16:12;9.73;;;4.15;;
18905;SDS011;9585;51.018;4.282;2023-06-26T04:18:42;8.48;;;3.92;;
18905;SDS011;9585;51.018;4.282;2023-06-26T04:21:10;9.80;;;3.92;;
18905;SDS011;9585;51.018;4.282;2023-06-26T04:23:39;10.63;;;4.20;;
18905;SDS011;9585;51.018;4.282;2023-06-26T04:26:08;8.98;;;3.80;;
18905;SDS011;9585;51.018;4.282;2023-06-26T04:28:39;10.60;;;4.18;;
18905;SDS011;9585;51.018;4.282;2023-06-26T04:31:07;13.00;;;4.30;;
18905;SDS011;9585;51.018;4.282;2023-06-26T04:33:35;11.15;;;3.97;;
18905;SDS011;9585;51.018;4.282;2023-06-26T04:36:04;10.68;;;4.07;;
18905;SDS011;9585;51.018;4.282;2023-06-26T04:38:32;9.43;;;3.83;;
18905;SDS011;9585;51.018;4.282;2023-06-26T04:41:00;6.93;;;3.40;;
18905;SDS011;9585;51.018;4.282;2023-06-26T04:43:28;11.07;;;3.75;;
18905;SDS011;9585;51.018;4.282;2023-06-26T04:45:56;8.48;;;3.38;;
18905;SDS011;9585;51.018;4.282;2023-06-26T04:48:24;12.18;;;3.80;;
18905;SDS011;9585;51.018;4.282;2023-06-26T04:50:53;9.90;;;3.40;;
18905;SDS011;9585;51.018;4.282;2023-06-26T04:53:23;9.77;;;3.20;;
18905;SDS011;9585;51.018;4.282;2023-06-26T04:55:51;7.85;;;3.58;;
18905;SDS011;9585;51.018;4.282;2023-06-26T04:58:19;11.60;;;3.63;;
18905;SDS011;9585;51.018;4.282;2023-06-26T05:00:46;8.93;;;3.40;;
18905;SDS011;9585;51.018;4.282;2023-06-26T05:03:14;6.35;;;3.65;;
18905;SDS011;9585;51.018;4.282;2023-06-26T05:05:44;8.80;;;3.60;;
18905;SDS011;9585;51.018;4.282;2023-06-26T05:08:15;10.15;;;4.07;;
18905;SDS011;9585;51.018;4.282;2023-06-26T05:10:45;8.93;;;3.75;;
18905;SDS011;9585;51.018;4.282;2023-06-26T05:13:12;8.95;;;3.10;;
18905;SDS011;9585;51.018;4.282;2023-06-26T05:15:42;9.63;;;3.10;;
18905;SDS011;9585;51.018;4.282;2023-06-26T05:18:10;11.23;;;3.17;;
18905;SDS011;9585;51.018;4.282;2023-06-26T05:20:38;7.80;;;3.03;;
18905;SDS011;9585;51.018;4.282;2023-06-26T05:23:06;6.60;;;2.97;;
18905;SDS011;9585;51.018;4.282;2023-06-26T05:25:34;7.47;;;2.58;;
18905;SDS011;9585;51.018;4.282;2023-06-26T05:28:03;7.65;;;2.50;;
18905;SDS011;9585;51.018;4.282;2023-06-26T05:30:31;9.95;;;2.75;;
18905;SDS011;9585;51.018;4.282;2023-06-26T05:33:01;7.40;;;2.58;;
18905;SDS011;9585;51.018;4.282;2023-06-26T05:35:31;6.88;;;2.80;;
18905;SDS011;9585;51.018;4.282;2023-06-26T05:37:59;7.28;;;2.42;;
18905;SDS011;9585;51.018;4.282;2023-06-26T05:40:27;6.65;;;2.38;;
18905;SDS011;9585;51.018;4.282;2023-06-26T05:42:55;6.32;;;2.33;;
18905;SDS011;9585;51.018;4.282;2023-06-26T05:45:24;7.95;;;2.20;;
18905;SDS011;9585;51.018;4.282;2023-06-26T05:47:51;9.18;;;2.42;;
18905;SDS011;9585;51.018;4.282;2023-06-26T05:50:19;4.50;;;1.75;;
18905;SDS011;9585;51.018;4.282;2023-06-26T05:52:47;7.03;;;2.25;;
18905;SDS011;9585;51.018;4.282;2023-06-26T05:55:16;6.38;;;2.10;;
18905;SDS011;9585;51.018;4.282;2023-06-26T05:57:43;6.05;;;2.28;;
18905;SDS011;9585;51.018;4.282;2023-06-26T06:00:13;5.43;;;1.77;;
18905;SDS011;9585;51.018;4.282;2023-06-26T06:02:42;9.05;;;2.28;;
18905;SDS011;9585;51.018;4.282;2023-06-26T06:05:10;5.15;;;1.83;;
18905;SDS011;9585;51.018;4.282;2023-06-26T06:07:38;4.70;;;1.83;;
18905;SDS011;9585;51.018;4.282;2023-06-26T06:10:05;5.63;;;1.80;;
18905;SDS011;9585;51.018;4.282;2023-06-26T06:12:33;4.47;;;1.98;;
18905;SDS011;9585;51.018;4.282;2023-06-26T06:15:01;2.78;;;1.45;;
18905;SDS011;9585;51.018;4.282;2023-06-26T06:17:28;4.72;;;1.70;;
18905;SDS011;9585;51.018;4.282;2023-06-26T06:19:57;5.38;;;1.85;;
18905;SDS011;9585;51.018;4.282;2023-06-26T06:22:25;4.60;;;1.60;;
18905;SDS011;9585;51.018;4.282;2023-06-26T06:24:53;4.25;;;1.58;;
18905;SDS011;9585;51.018;4.282;2023-06-26T06:27:21;4.07;;;1.50;;
18905;SDS011;9585;51.018;4.282;2023-06-26T06:29:49;5.18;;;1.52;;
18905;SDS011;9585;51.018;4.282;2023-06-26T06:32:17;3.85;;;1.38;;
18905;SDS011;9585;51.018;4.282;2023-06-26T06:34:44;4.38;;;1.50;;
18905;SDS011;9585;51.018;4.282;2023-06-26T06:37:13;5.50;;;1.27;;
18905;SDS011;9585;51.018;4.282;2023-06-26T06:39:41;6.43;;;1.60;;
18905;SDS011;9585;51.018;4.282;2023-06-26T06:42:08;5.18;;;1.40;;
18905;SDS011;9585;51.018;4.282;2023-06-26T06:44:35;4.10;;;1.40;;
18905;SDS011;9585;51.018;4.282;2023-06-26T06:47:03;4.85;;;1.50;;
18905;SDS011;9585;51.018;4.282;2023-06-26T06:49:30;4.63;;;1.70;;
18905;SDS011;9585;51.018;4.282;2023-06-26T06:51:58;4.30;;;1.50;;
18905;SDS011;9585;51.018;4.282;2023-06-26T06:54:27;4.63;;;1.40;;
18905;SDS011;9585;51.018;4.282;2023-06-26T06:56:54;4.85;;;1.75;;
18905;SDS011;9585;51.018;4.282;2023-06-26T06:59:21;5.93;;;1.40;;
18905;SDS011;9585;51.018;4.282;2023-06-26T07:01:49;4.80;;;1.50;;
18905;SDS011;9585;51.018;4.282;2023-06-26T07:04:16;4.35;;;1.60;;
18905;SDS011;9585;51.018;4.282;2023-06-26T07:06:43;3.75;;;1.40;;
18905;SDS011;9585;51.018;4.282;2023-06-26T07:09:11;3.20;;;1.13;;
18905;SDS011;9585;51.018;4.282;2023-06-26T07:11:42;3.72;;;1.23;;
18905;SDS011;9585;51.018;4.282;2023-06-26T07:14:09;4.28;;;1.55;;
18905;SDS011;9585;51.018;4.282;2023-06-26T07:16:36;3.40;;;1.20;;
18905;SDS011;9585;51.018;4.282;2023-06-26T07:19:04;2.85;;;1.33;;
18905;SDS011;9585;51.018;4.282;2023-06-26T07:21:31;4.57;;;1.30;;
18905;SDS011;9585;51.018;4.282;2023-06-26T07:23:59;2.40;;;1.02;;
18905;SDS011;9585;51.018;4.282;2023-06-26T07:26:26;3.55;;;1.20;;
18905;SDS011;9585;51.018;4.282;2023-06-26T07:28:55;4.68;;;1.30;;
18905;SDS011;9585;51.018;4.282;2023-06-26T07:31:23;4.03;;;1.20;;
18905;SDS011;9585;51.018;4.282;2023-06-26T07:33:50;3.92;;;1.15;;
18905;SDS011;9585;51.018;4.282;2023-06-26T07:36:18;3.95;;;1.13;;
18905;SDS011;9585;51.018;4.282;2023-06-26T07:38:45;2.65;;;0.85;;
18905;SDS011;9585;51.018;4.282;2023-06-26T07:41:12;2.05;;;0.90;;
18905;SDS011;9585;51.018;4.282;2023-06-26T07:43:40;4.53;;;1.20;;
18905;SDS011;9585;51.018;4.282;2023-06-26T07:46:09;5.03;;;1.27;;
18905;SDS011;9585;51.018;4.282;2023-06-26T07:48:36;3.22;;;1.10;;
18905;SDS011;9585;51.018;4.282;2023-06-26T07:51:04;3.72;;;1.13;;
18905;SDS011;9585;51.018;4.282;2023-06-26T07:53:32;2.45;;;0.95;;
18905;SDS011;9585;51.018;4.282;2023-06-26T07:55:59;4.03;;;1.30;;
18905;SDS011;9585;51.018;4.282;2023-06-26T07:58:27;3.38;;;1.30;;
18905;SDS011;9585;51.018;4.282;2023-06-26T08:00:54;2.60;;;1.17;;
18905;SDS011;9585;51.018;4.282;2023-06-26T08:03:24;2.03;;;1.20;;
18905;SDS011;9585;51.018;4.282;2023-06-26T08:05:51;4.20;;;1.10;;
18905;SDS011;9585;51.018;4.282;2023-06-26T08:08:19;3.30;;;1.10;;
18905;SDS011;9585;51.018;4.282;2023-06-26T08:10:46;3.03;;;1.10;;
18905;SDS011;9585;51.018;4.282;2023-06-26T08:13:14;2.03;;;0.90;;
18905;SDS011;9585;51.018;4.282;2023-06-26T08:15:42;3.10;;;1.20;;
18905;SDS011;9585;51.018;4.282;2023-06-26T08:18:09;3.22;;;0.90;;
18905;SDS011;9585;51.018;4.282;2023-06-26T08:20:38;2.78;;;1.10;;
18905;SDS011;9585;51.018;4.282;2023-06-26T08:23:06;2.20;;;0.95;;
18905;SDS011;9585;51.018;4.282;2023-06-26T08:25:34;4.82;;;0.90;;
18905;SDS011;9585;51.018;4.282;2023-06-26T08:28:01;1.83;;;0.82;;
18905;SDS011;9585;51.018;4.282;2023-06-26T08:30:29;2.58;;;1.10;;
18905;SDS011;9585;51.018;4.282;2023-06-26T08:32:56;2.75;;;1.08;;
18905;SDS011;9585;51.018;4.282;2023-06-26T08:35:24;4.50;;;1.15;;
18905;SDS011;9585;51.018;4.282;2023-06-26T08:37:56;2.92;;;1.00;;
18905;SDS011;9585;51.018;4.282;2023-06-26T08:40:24;2.67;;;1.20;;
18905;SDS011;9585;51.018;4.282;2023-06-26T08:42:53;2.67;;;1.15;;
18905;SDS011;9585;51.018;4.282;2023-06-26T08:45:21;2.83;;;1.15;;
18905;SDS011;9585;51.018;4.282;2023-06-26T08:47:50;2.88;;;1.10;;
18905;SDS011;9585;51.018;4.282;2023-06-26T08:50:20;3.15;;;1.33;;
18905;SDS011;9585;51.018;4.282;2023-06-26T08:52:52;2.10;;;1.20;;
18905;SDS011;9585;51.018;4.282;2023-06-26T08:55:31;3.22;;;0.93;;
18905;SDS011;9585;51.018;4.282;2023-06-26T08:58:00;3.20;;;0.95;;
18905;SDS011;9585;51.018;4.282;2023-06-26T09:00:28;3.30;;;1.20;;
18905;SDS011;9585;51.018;4.282;2023-06-26T09:02:57;5.68;;;1.17;;
18905;SDS011;9585;51.018;4.282;2023-06-26T09:05:25;2.55;;;0.90;;
18905;SDS011;9585;51.018;4.282;2023-06-26T09:07:53;3.90;;;1.25;;
18905;SDS011;9585;51.018;4.282;2023-06-26T09:10:21;3.70;;;1.05;;
18905;SDS011;9585;51.018;4.282;2023-06-26T09:12:50;3.10;;;1.10;;
18905;SDS011;9585;51.018;4.282;2023-06-26T09:15:21;3.67;;;1.00;;
18905;SDS011;9585;51.018;4.282;2023-06-26T09:17:50;4.18;;;1.25;;
18905;SDS011;9585;51.018;4.282;2023-06-26T09:20:24;1.73;;;0.82;;
18905;SDS011;9585;51.018;4.282;2023-06-26T09:22:55;2.50;;;1.30;;
18905;SDS011;9585;51.018;4.282;2023-06-26T09:25:24;2.17;;;1.20;;
18905;SDS011;9585;51.018;4.282;2023-06-26T09:27:53;3.03;;;1.00;;
18905;SDS011;9585;51.018;4.282;2023-06-26T09:30:21;3.70;;;1.10;;
18905;SDS011;9585;51.018;4.282;2023-06-26T09:32:48;3.95;;;1.15;;
18905;SDS011;9585;51.018;4.282;2023-06-26T09:35:17;3.05;;;1.33;;
18905;SDS011;9585;51.018;4.282;2023-06-26T09:37:45;3.25;;;1.30;;
18905;SDS011;9585;51.018;4.282;2023-06-26T09:40:13;2.30;;;1.08;;
18905;SDS011;9585;51.018;4.282;2023-06-26T09:42:41;2.33;;;1.13;;
18905;SDS011;9585;51.018;4.282;2023-06-26T09:45:13;1.92;;;0.85;;
18905;SDS011;9585;51.018;4.282;2023-06-26T09:47:46;1.35;;;1.05;;
18905;SDS011;9585;51.018;4.282;2023-06-26T09:50:22;2.25;;;1.02;;
18905;SDS011;9585;51.018;4.282;2023-06-26T09:52:52;3.38;;;0.90;;
18905;SDS011;9585;51.018;4.282;2023-06-26T09:55:20;2.22;;;1.10;;
18905;SDS011;9585;51.018;4.282;2023-06-26T09:57:49;2.35;;;1.13;;
18905;SDS011;9585;51.018;4.282;2023-06-26T10:00:20;1.83;;;1.10;;
18905;SDS011;9585;51.018;4.282;2023-06-26T10:02:47;1.92;;;1.00;;
18905;SDS011;9585;51.018;4.282;2023-06-26T10:05:15;1.95;;;0.90;;
18905;SDS011;9585;51.018;4.282;2023-06-26T10:07:43;3.47;;;1.13;;
18905;SDS011;9585;51.018;4.282;2023-06-26T10:10:11;2.15;;;0.90;;
18905;SDS011;9585;51.018;4.282;2023-06-26T10:12:40;3.75;;;1.33;;
18905;SDS011;9585;51.018;4.282;2023-06-26T10:15:07;1.90;;;1.00;;
18905;SDS011;9585;51.018;4.282;2023-06-26T10:17:41;3.10;;;1.15;;
18905;SDS011;9585;51.018;4.282;2023-06-26T10:20:10;2.33;;;0.85;;
18905;SDS011;9585;51.018;4.282;2023-06-26T10:22:41;2.40;;;0.90;;
18905;SDS011;9585;51.018;4.282;2023-06-26T10:25:12;2.80;;;0.98;;
18905;SDS011;9585;51.018;4.282;2023-06-26T10:27:46;2.60;;;1.20;;
18905;SDS011;9585;51.018;4.282;2023-06-26T10:30:18;3.75;;;1.27;;
18905;SDS011;9585;51.018;4.282;2023-06-26T10:32:50;1.60;;;1.23;;
18905;SDS011;9585;51.018;4.282;2023-06-26T10:35:18;2.15;;;0.93;;
18905;SDS011;9585;51.018;4.282;2023-06-26T10:37:47;2.55;;;0.93;;
18905;SDS011;9585;51.018;4.282;2023-06-26T10:40:21;3.17;;;1.10;;
18905;SDS011;9585;51.018;4.282;2023-06-26T10:42:52;2.88;;;1.23;;
18905;SDS011;9585;51.018;4.282;2023-06-26T10:45:34;1.25;;;0.77;;
18905;SDS011;9585;51.018;4.282;2023-06-26T10:48:03;2.45;;;1.00;;
18905;SDS011;9585;51.018;4.282;2023-06-26T10:50:32;3.42;;;0.93;;
18905;SDS011;9585;51.018;4.282;2023-06-26T10:53:09;2.40;;;1.02;;
18905;SDS011;9585;51.018;4.282;2023-06-26T10:55:42;2.20;;;1.10;;
18905;SDS011;9585;51.018;4.282;2023-06-26T10:58:29;3.20;;;1.20;;
18905;SDS011;9585;51.018;4.282;2023-06-26T11:03:49;4.07;;;1.10;;
18905;SDS011;9585;51.018;4.282;2023-06-26T11:06:29;4.20;;;1.00;;
18905;SDS011;9585;51.018;4.282;2023-06-26T11:08:59;1.77;;;1.00;;
18905;SDS011;9585;51.018;4.282;2023-06-26T11:14:29;3.17;;;1.02;;
18905;SDS011;9585;51.018;4.282;2023-06-26T11:16:58;3.15;;;1.20;;
18905;SDS011;9585;51.018;4.282;2023-06-26T11:19:30;3.47;;;1.00;;
18905;SDS011;9585;51.018;4.282;2023-06-26T11:22:04;2.55;;;1.00;;
18905;SDS011;9585;51.018;4.282;2023-06-26T11:24:32;2.50;;;0.90;;
18905;SDS011;9585;51.018;4.282;2023-06-26T11:27:00;2.05;;;0.90;;
18905;SDS011;9585;51.018;4.282;2023-06-26T11:29:29;4.60;;;1.17;;
18905;SDS011;9585;51.018;4.282;2023-06-26T11:31:58;2.65;;;1.00;;
18905;SDS011;9585;51.018;4.282;2023-06-26T11:34:30;2.72;;;1.23;;
18905;SDS011;9585;51.018;4.282;2023-06-26T11:36:59;1.63;;;1.00;;
18905;SDS011;9585;51.018;4.282;2023-06-26T11:39:30;1.50;;;0.90;;
18905;SDS011;9585;51.018;4.282;2023-06-26T11:41:58;1.73;;;0.90;;
18905;SDS011;9585;51.018;4.282;2023-06-26T11:44:29;3.00;;;0.90;;
18905;SDS011;9585;51.018;4.282;2023-06-26T11:46:57;2.75;;;0.98;;
18905;SDS011;9585;51.018;4.282;2023-06-26T11:49:24;3.40;;;0.95;;
18905;SDS011;9585;51.018;4.282;2023-06-26T11:51:56;1.80;;;1.00;;
18905;SDS011;9585;51.018;4.282;2023-06-26T11:54:24;3.50;;;1.08;;
18905;SDS011;9585;51.018;4.282;2023-06-26T11:56:56;3.10;;;1.10;;
18905;SDS011;9585;51.018;4.282;2023-06-26T11:59:35;4.22;;;1.20;;
18905;SDS011;9585;51.018;4.282;2023-06-26T12:02:06;2.80;;;0.88;;
18905;SDS011;9585;51.018;4.282;2023-06-26T12:04:35;2.15;;;1.10;;
18905;SDS011;9585;51.018;4.282;2023-06-26T12:07:07;2.38;;;1.02;;
18905;SDS011;9585;51.018;4.282;2023-06-26T12:09:37;3.50;;;1.10;;
18905;SDS011;9585;51.018;4.282;2023-06-26T12:12:07;3.20;;;1.02;;
18905;SDS011;9585;51.018;4.282;2023-06-26T12:14:35;5.88;;;1.48;;
18905;SDS011;9585;51.018;4.282;2023-06-26T12:17:04;3.65;;;1.00;;
18905;SDS011;9585;51.018;4.282;2023-06-26T12:19:34;1.88;;;0.90;;
18905;SDS011;9585;51.018;4.282;2023-06-26T12:22:07;2.92;;;1.17;;
18905;SDS011;9585;51.018;4.282;2023-06-26T12:24:36;3.28;;;1.20;;
18905;SDS011;9585;51.018;4.282;2023-06-26T12:27:07;2.60;;;1.30;;
18905;SDS011;9585;51.018;4.282;2023-06-26T12:29:35;3.17;;;0.98;;
18905;SDS011;9585;51.018;4.282;2023-06-26T12:32:03;3.45;;;1.20;;
18905;SDS011;9585;51.018;4.282;2023-06-26T12:34:31;1.42;;;0.90;;
18905;SDS011;9585;51.018;4.282;2023-06-26T12:37:00;2.70;;;1.20;;
18905;SDS011;9585;51.018;4.282;2023-06-26T12:39:44;4.30;;;1.10;;
18905;SDS011;9585;51.018;4.282;2023-06-26T12:42:14;3.03;;;1.10;;
18905;SDS011;9585;51.018;4.282;2023-06-26T12:44:42;6.10;;;1.17;;
18905;SDS011;9585;51.018;4.282;2023-06-26T12:47:09;2.65;;;1.27;;
18905;SDS011;9585;51.018;4.282;2023-06-26T12:49:39;3.90;;;1.40;;
18905;SDS011;9585;51.018;4.282;2023-06-26T12:52:09;2.80;;;1.27;;
18905;SDS011;9585;51.018;4.282;2023-06-26T12:54:40;3.50;;;1.38;;
18905;SDS011;9585;51.018;4.282;2023-06-26T12:57:09;4.25;;;1.20;;
18905;SDS011;9585;51.018;4.282;2023-06-26T12:59:39;3.20;;;1.02;;
18905;SDS011;9585;51.018;4.282;2023-06-26T13:02:07;2.80;;;1.10;;
18905;SDS011;9585;51.018;4.282;2023-06-26T13:04:36;5.80;;;1.40;;
18905;SDS011;9585;51.018;4.282;2023-06-26T13:07:06;4.22;;;1.00;;
18905;SDS011;9585;51.018;4.282;2023-06-26T13:09:34;2.58;;;1.15;;
18905;SDS011;9585;51.018;4.282;2023-06-26T13:12:05;4.15;;;1.02;;
18905;SDS011;9585;51.018;4.282;2023-06-26T13:14:33;4.57;;;1.20;;
18905;SDS011;9585;51.018;4.282;2023-06-26T13:17:00;4.47;;;1.42;;
18905;SDS011;9585;51.018;4.282;2023-06-26T13:19:28;12.45;;;1.95;;
18905;SDS011;9585;51.018;4.282;2023-06-26T13:21:56;4.18;;;1.30;;
18905;SDS011;9585;51.018;4.282;2023-06-26T13:24:25;4.93;;;1.27;;
18905;SDS011;9585;51.018;4.282;2023-06-26T13:26:53;2.10;;;0.95;;
18905;SDS011;9585;51.018;4.282;2023-06-26T13:29:22;2.47;;;1.02;;
18905;SDS011;9585;51.018;4.282;2023-06-26T13:31:49;6.72;;;1.50;;
18905;SDS011;9585;51.018;4.282;2023-06-26T13:34:20;4.95;;;1.10;;
18905;SDS011;9585;51.018;4.282;2023-06-26T13:36:49;2.80;;;0.90;;
18905;SDS011;9585;51.018;4.282;2023-06-26T13:39:17;3.10;;;1.27;;
18905;SDS011;9585;51.018;4.282;2023-06-26T13:41:44;3.05;;;1.30;;
18905;SDS011;9585;51.018;4.282;2023-06-26T13:44:12;2.08;;;1.10;;
18905;SDS011;9585;51.018;4.282;2023-06-26T13:46:41;1.38;;;1.00;;
18905;SDS011;9585;51.018;4.282;2023-06-26T13:49:09;2.35;;;1.13;;
18905;SDS011;9585;51.018;4.282;2023-06-26T13:51:36;2.53;;;1.20;;
18905;SDS011;9585;51.018;4.282;2023-06-26T13:54:11;2.60;;;1.13;;
18905;SDS011;9585;51.018;4.282;2023-06-26T13:56:39;3.90;;;1.20;;
18905;SDS011;9585;51.018;4.282;2023-06-26T13:59:06;1.90;;;1.23;;
18905;SDS011;9585;51.018;4.282;2023-06-26T14:01:34;2.63;;;1.23;;
18905;SDS011;9585;51.018;4.282;2023-06-26T14:04:03;1.95;;;1.08;;
18905;SDS011;9585;51.018;4.282;2023-06-26T14:06:31;4.28;;;1.10;;
18905;SDS011;9585;51.018;4.282;2023-06-26T14:09:00;2.75;;;1.10;;
18905;SDS011;9585;51.018;4.282;2023-06-26T14:11:29;3.13;;;1.20;;
18905;SDS011;9585;51.018;4.282;2023-06-26T14:13:57;1.92;;;1.13;;
18905;SDS011;9585;51.018;4.282;2023-06-26T14:16:25;3.25;;;1.15;;
18905;SDS011;9585;51.018;4.282;2023-06-26T14:18:54;4.82;;;1.20;;
18905;SDS011;9585;51.018;4.282;2023-06-26T14:21:23;3.53;;;1.20;;
18905;SDS011;9585;51.018;4.282;2023-06-26T14:23:50;3.17;;;1.17;;
18905;SDS011;9585;51.018;4.282;2023-06-26T14:26:17;2.28;;;1.20;;
18905;SDS011;9585;51.018;4.282;2023-06-26T14:28:45;3.38;;;1.10;;
18905;SDS011;9585;51.018;4.282;2023-06-26T14:31:12;1.80;;;1.20;;
18905;SDS011;9585;51.018;4.282;2023-06-26T14:33:40;3.75;;;1.17;;
18905;SDS011;9585;51.018;4.282;2023-06-26T14:36:07;3.00;;;1.10;;
18905;SDS011;9585;51.018;4.282;2023-06-26T14:38:36;2.05;;;1.10;;
18905;SDS011;9585;51.018;4.282;2023-06-26T14:41:03;2.40;;;0.98;;
18905;SDS011;9585;51.018;4.282;2023-06-26T14:43:31;2.53;;;1.10;;
18905;SDS011;9585;51.018;4.282;2023-06-26T14:45:58;3.17;;;1.10;;
18905;SDS011;9585;51.018;4.282;2023-06-26T14:48:25;2.58;;;1.05;;
18905;SDS011;9585;51.018;4.282;2023-06-26T14:50:53;2.20;;;1.05;;
18905;SDS011;9585;51.018;4.282;2023-06-26T14:53:20;2.55;;;1.30;;
18905;SDS011;9585;51.018;4.282;2023-06-26T14:55:49;2.53;;;1.15;;
18905;SDS011;9585;51.018;4.282;2023-06-26T14:58:16;2.85;;;1.20;;
18905;SDS011;9585;51.018;4.282;2023-06-26T15:00:44;1.48;;;1.00;;
18905;SDS011;9585;51.018;4.282;2023-06-26T15:03:11;2.08;;;1.00;;
18905;SDS011;9585;51.018;4.282;2023-06-26T15:05:38;2.90;;;1.30;;
18905;SDS011;9585;51.018;4.282;2023-06-26T15:08:06;3.90;;;1.13;;
18905;SDS011;9585;51.018;4.282;2023-06-26T15:10:35;4.45;;;1.40;;
18905;SDS011;9585;51.018;4.282;2023-06-26T15:13:03;1.55;;;0.90;;
18905;SDS011;9585;51.018;4.282;2023-06-26T15:15:32;1.58;;;1.17;;